Terminal Aerodrome Forecast
Issued by NWS

Current Version | Previous Version | Text Only | Print | Product List | Glossary On
Versions: 1 2 3 4 5 6 7 8 9 10 11 12 13 14 15 16 17 18 19 20 21 22 23 24 25 26 27 28
000
FTPQ31 PGUM 122322
TAFGUM
TAF

TAF
PTRO 122322Z 1300/1324 25011KT P6SM VCSH SCT015 BKN120
      TEMPO 1301/1303 25015G25KT 3SM SHRA BKN015 OVC040=

USA.gov is the U.S. government's official web portal to all federal, state and local government web resources and services.